Weather at Lomé–Tokoin International Airport

Public forecast

Using degrees Celsius for public forecast. Weather courtesy of forecast.io.

Current aviation weather report (METAR) for Lomé–Tokoin International Airport

2024/07/16 20:00 (retrieved 45 minutes ago)

DXXX 162000Z 23010KT 9999 FEW010 26/23 Q1015 NOSIG

Aviation forecast (TAF) for Lomé–Tokoin International Airport

2024/07/16 18:24 (retrieved 2 hours ago)

TAF DXXX 161700Z 1618/1724 24010KT 9999 SCT010